createdAt,value
2022-10-25T00:00:44.791Z,14.15
2022-10-25T00:03:12.113Z,14.12
2022-10-25T00:05:39.186Z,14.07
2022-10-25T00:08:07.068Z,14.03
2022-10-25T00:10:33.602Z,14.02
2022-10-25T00:12:59.991Z,14.06
2022-10-25T00:15:26.291Z,14.06
2022-10-25T00:17:52.632Z,14.06
2022-10-25T00:20:19.611Z,14.09
2022-10-25T00:22:46.200Z,14.10
2022-10-25T00:25:14.038Z,14.10
2022-10-25T00:27:40.336Z,14.11
2022-10-25T00:30:07.379Z,14.13
2022-10-25T00:32:33.976Z,14.14
2022-10-25T00:35:00.277Z,14.16
2022-10-25T00:37:26.605Z,14.16
2022-10-25T00:39:52.929Z,14.19
2022-10-25T00:42:21.718Z,14.19
2022-10-25T00:44:49.856Z,14.20
2022-10-25T00:47:21.202Z,14.20
2022-10-25T00:49:49.379Z,14.19
2022-10-25T00:52:16.142Z,14.18
2022-10-25T00:54:44.677Z,14.15
2022-10-25T00:57:12.752Z,14.14
2022-10-25T00:59:40.511Z,14.10
2022-10-25T01:02:07.028Z,14.04
2022-10-25T01:04:34.017Z,14.00
2022-10-25T01:07:01.283Z,13.98
2022-10-25T01:09:29.851Z,13.93
2022-10-25T01:11:56.135Z,13.85
2022-10-25T01:14:22.786Z,13.81
2022-10-25T01:16:55.686Z,13.80
2022-10-25T01:22:06.793Z,13.73
2022-10-25T01:24:43.340Z,13.73
2022-10-25T01:27:27.621Z,13.71
2022-10-25T01:30:04.920Z,13.68
2022-10-25T01:32:35.174Z,13.65
2022-10-25T01:35:07.280Z,13.60
2022-10-25T01:37:41.122Z,13.55
2022-10-25T01:40:16.301Z,13.53
2022-10-25T01:42:49.034Z,13.51
2022-10-25T01:45:19.457Z,13.47
2022-10-25T01:47:50.377Z,13.45
2022-10-25T01:50:18.960Z,13.44
2022-10-25T01:52:45.338Z,13.44
2022-10-25T01:55:13.169Z,13.40
2022-10-25T01:57:44.998Z,13.39
2022-10-25T02:00:13.752Z,13.37
2022-10-25T02:03:04.213Z,13.37
2022-10-25T02:05:36.288Z,13.38
2022-10-25T02:08:04.424Z,13.39
2022-10-25T02:10:35.359Z,13.40
2022-10-25T02:13:03.903Z,13.38
2022-10-25T02:15:34.007Z,13.41
2022-10-25T02:18:03.712Z,13.40
2022-10-25T02:20:32.322Z,13.38
2022-10-25T02:23:00.941Z,13.42
2022-10-25T02:25:28.159Z,13.42
2022-10-25T02:27:55.182Z,13.42
2022-10-25T02:30:21.470Z,13.40
2022-10-25T02:32:47.785Z,13.43
2022-10-25T02:35:16.471Z,13.46
2022-10-25T02:37:42.801Z,13.46
2022-10-25T02:40:09.922Z,13.46
2022-10-25T02:42:36.347Z,13.47
2022-10-25T02:45:02.716Z,13.46
2022-10-25T02:47:28.985Z,13.44
2022-10-25T02:49:55.304Z,13.44
2022-10-25T02:52:22.942Z,13.44
2022-10-25T02:54:49.234Z,13.50
2022-10-25T02:57:15.527Z,13.46
2022-10-25T02:59:41.808Z,13.43
2022-10-25T03:02:08.653Z,13.42
2022-10-25T03:04:34.941Z,13.41
2022-10-25T03:07:01.228Z,13.40
2022-10-25T03:09:28.823Z,13.40
2022-10-25T03:11:55.113Z,13.40
2022-10-25T03:14:21.398Z,13.39
2022-10-25T03:19:18.865Z,13.41
2022-10-25T03:21:45.157Z,13.40
2022-10-25T03:24:11.764Z,13.41
2022-10-25T03:26:39.445Z,13.40
2022-10-25T03:29:05.713Z,13.40
2022-10-25T03:31:31.987Z,13.40
2022-10-25T03:33:58.358Z,13.41
2022-10-25T03:36:24.671Z,13.41
2022-10-25T03:38:51.028Z,13.39
2022-10-25T03:41:17.307Z,13.41
2022-10-25T03:43:44.944Z,13.39
2022-10-25T03:46:11.268Z,13.38
2022-10-25T03:48:37.545Z,13.35
2022-10-25T03:51:03.981Z,13.35
2022-10-25T03:53:30.295Z,13.33
2022-10-25T03:55:56.595Z,13.33
2022-10-25T03:58:22.865Z,13.32
2022-10-25T04:00:50.662Z,13.30
2022-10-25T04:03:17.198Z,13.27
2022-10-25T04:05:43.487Z,13.29
2022-10-25T04:08:09.769Z,13.28
2022-10-25T04:10:36.078Z,13.30
2022-10-25T04:13:02.363Z,13.31
2022-10-25T04:15:28.648Z,13.35
2022-10-25T04:17:56.304Z,13.33
2022-10-25T04:20:22.716Z,13.32
2022-10-25T04:22:53.296Z,13.29
2022-10-25T04:25:19.596Z,13.29
2022-10-25T04:27:46.216Z,13.27
2022-10-25T04:30:12.785Z,13.25
2022-10-25T04:32:39.350Z,13.23
2022-10-25T04:35:07.550Z,13.21
2022-10-25T04:37:33.813Z,13.18
2022-10-25T04:40:00.144Z,13.15
2022-10-25T04:42:26.491Z,13.12
2022-10-25T04:44:52.797Z,13.08
2022-10-25T04:47:19.093Z,13.04
2022-10-25T04:49:45.365Z,13.02
2022-10-25T04:52:13.000Z,12.99
2022-10-25T04:54:39.293Z,12.97
2022-10-25T04:57:05.565Z,12.96
2022-10-25T04:59:31.852Z,12.94
2022-10-25T05:01:58.170Z,12.89
2022-10-25T05:04:24.561Z,12.86
2022-10-25T05:06:50.835Z,12.85
2022-10-25T05:09:18.457Z,12.83
2022-10-25T05:11:44.734Z,12.82
2022-10-25T05:14:11.013Z,12.79
2022-10-25T05:16:37.490Z,12.76
2022-10-25T05:19:03.745Z,12.76
2022-10-25T05:21:30.058Z,12.75
2022-10-25T05:24:00.537Z,12.74
2022-10-25T05:26:30.118Z,12.72
2022-10-25T05:28:56.431Z,12.71
2022-10-25T05:31:23.570Z,12.70
2022-10-25T05:33:50.678Z,12.67
2022-10-25T05:36:17.266Z,12.67
2022-10-25T05:38:43.566Z,12.66
2022-10-25T05:41:10.331Z,12.64
2022-10-25T05:43:38.016Z,12.60
2022-10-25T05:46:05.642Z,12.60
2022-10-25T05:48:32.741Z,12.59
2022-10-25T05:51:20.950Z,12.61
2022-10-25T05:53:55.256Z,12.62
2022-10-25T05:56:22.569Z,12.60
2022-10-25T05:58:50.232Z,12.59
2022-10-25T06:01:17.556Z,12.59
2022-10-25T06:03:44.283Z,12.58
2022-10-25T06:06:11.847Z,12.60
2022-10-25T06:08:38.502Z,12.58
2022-10-25T06:11:06.444Z,12.57
2022-10-25T06:13:33.024Z,12.57
2022-10-25T06:16:02.839Z,12.57
2022-10-25T06:18:29.113Z,12.56
2022-10-25T06:20:55.418Z,12.56
2022-10-25T06:23:21.724Z,12.56
2022-10-25T06:25:48.008Z,12.55
2022-10-25T06:28:14.286Z,12.55
2022-10-25T06:30:40.562Z,12.58
2022-10-25T06:33:08.205Z,12.59
2022-10-25T06:35:34.474Z,12.59
2022-10-25T06:38:00.766Z,12.62
2022-10-25T06:40:27.306Z,12.66
2022-10-25T06:42:54.069Z,12.65
2022-10-25T06:45:20.346Z,12.66
2022-10-25T06:47:46.623Z,12.66
2022-10-25T06:50:14.512Z,12.66
2022-10-25T06:52:40.795Z,12.67
2022-10-25T06:55:07.231Z,12.67
2022-10-25T06:57:33.576Z,12.68
2022-10-25T07:02:31.287Z,12.70
2022-10-25T07:04:57.643Z,12.70
2022-10-25T07:07:25.338Z,12.71
2022-10-25T07:09:51.625Z,12.72
2022-10-25T07:12:17.932Z,12.73
2022-10-25T07:14:44.433Z,12.78
2022-10-25T07:17:10.714Z,12.82
2022-10-25T07:19:37.012Z,12.84
2022-10-25T07:22:03.326Z,12.88
2022-10-25T07:24:30.928Z,12.92
2022-10-25T07:26:57.201Z,12.94
2022-10-25T07:29:23.513Z,12.99
2022-10-25T07:31:49.785Z,13.00
2022-10-25T07:34:16.059Z,13.04
2022-10-25T07:36:42.357Z,13.07
2022-10-25T07:39:08.668Z,13.12
2022-10-25T07:41:36.294Z,13.18
2022-10-25T07:44:02.596Z,13.21
2022-10-25T07:46:28.901Z,13.27
2022-10-25T07:48:55.195Z,13.33
2022-10-25T07:51:21.507Z,13.37
2022-10-25T07:53:48.084Z,13.46
2022-10-25T07:56:17.608Z,13.51
2022-10-25T07:58:48.290Z,13.53
2022-10-25T08:01:17.891Z,13.62
2022-10-25T08:03:44.223Z,13.64
2022-10-25T08:06:10.525Z,13.67
2022-10-25T08:08:36.847Z,13.68
2022-10-25T08:11:03.207Z,13.74
2022-10-25T08:13:29.714Z,13.79
2022-10-25T08:15:57.325Z,13.86
2022-10-25T08:18:23.728Z,13.91
2022-10-25T08:21:01.740Z,13.93
2022-10-25T08:23:28.581Z,14.04
2022-10-25T08:25:54.846Z,14.12
2022-10-25T08:28:21.151Z,14.19
2022-10-25T08:30:47.439Z,14.20
2022-10-25T08:33:15.057Z,14.28
2022-10-25T08:35:41.354Z,14.28
2022-10-25T08:38:07.650Z,14.38
2022-10-25T08:40:41.310Z,14.44
2022-10-25T08:43:13.516Z,14.51
2022-10-25T08:45:43.774Z,14.59
2022-10-25T08:48:15.894Z,14.65
2022-10-25T08:50:44.983Z,14.65
2022-10-25T08:53:14.921Z,14.64
2022-10-25T08:55:58.779Z,14.66
2022-10-25T08:58:32.158Z,14.69
2022-10-25T09:01:01.100Z,14.70
2022-10-25T09:03:27.754Z,14.72
2022-10-25T09:06:01.859Z,14.72
2022-10-25T09:08:36.687Z,14.81
2022-10-25T09:11:10.311Z,14.83
2022-10-25T09:13:41.089Z,14.80
2022-10-25T09:16:12.371Z,14.76
2022-10-25T09:18:42.361Z,14.81
2022-10-25T09:21:16.503Z,14.89
2022-10-25T09:23:54.016Z,14.96
2022-10-25T09:26:22.970Z,14.99
2022-10-25T09:28:50.565Z,14.99
2022-10-25T09:31:19.925Z,15.03
2022-10-25T09:33:47.011Z,15.09
2022-10-25T09:36:15.142Z,15.12
2022-10-25T09:38:43.933Z,15.14
2022-10-25T09:41:11.770Z,15.19
2022-10-25T09:43:40.828Z,15.19
2022-10-25T09:46:12.464Z,15.18
2022-10-25T09:48:42.339Z,15.17
2022-10-25T09:51:12.588Z,15.13
2022-10-25T09:53:41.020Z,15.15
2022-10-25T09:56:07.576Z,15.14
2022-10-25T09:58:34.970Z,15.13
2022-10-25T10:01:03.983Z,15.14
2022-10-25T10:03:31.909Z,15.12
2022-10-25T10:06:00.351Z,15.15
2022-10-25T10:08:27.101Z,15.12
2022-10-25T10:10:56.041Z,15.13
2022-10-25T10:13:31.427Z,15.20
2022-10-25T10:15:59.615Z,15.30
2022-10-25T10:18:27.599Z,15.36
2022-10-25T10:21:14.736Z,15.39
2022-10-25T10:23:49.002Z,15.38
2022-10-25T10:26:20.609Z,15.39
2022-10-25T10:28:48.333Z,15.41
2022-10-25T10:31:14.999Z,15.39
2022-10-25T10:33:46.609Z,15.40
2022-10-25T10:36:23.567Z,15.42
2022-10-25T10:38:50.054Z,15.39
2022-10-25T10:41:22.315Z,15.43
2022-10-25T10:43:48.610Z,15.45
2022-10-25T10:46:15.775Z,15.42
2022-10-25T10:48:44.079Z,15.46
2022-10-25T10:51:25.198Z,15.50
2022-10-25T10:53:57.444Z,15.55
2022-10-25T10:56:25.145Z,15.57
2022-10-25T10:58:53.603Z,15.58
2022-10-25T11:01:30.014Z,15.64
2022-10-25T11:04:00.390Z,15.74
2022-10-25T11:06:28.294Z,15.80
2022-10-25T11:09:07.861Z,15.84
2022-10-25T11:11:35.621Z,15.84
2022-10-25T11:14:07.469Z,15.87
2022-10-25T11:16:47.585Z,15.87
2022-10-25T11:19:21.954Z,15.92
2022-10-25T11:21:53.763Z,15.99
2022-10-25T11:24:26.183Z,16.01
2022-10-25T11:26:57.269Z,16.02
2022-10-25T11:29:32.384Z,16.00
2022-10-25T11:32:04.164Z,16.00
2022-10-25T11:34:38.463Z,15.99
2022-10-25T11:37:09.547Z,16.00
2022-10-25T11:39:44.695Z,16.02
2022-10-25T11:45:01.732Z,16.08
2022-10-25T11:47:33.822Z,16.07
2022-10-25T11:50:10.984Z,16.09
2022-10-25T11:52:45.679Z,16.08
2022-10-25T11:55:20.132Z,16.08
2022-10-25T11:57:52.739Z,16.07
2022-10-25T12:00:23.180Z,16.10
2022-10-25T12:02:59.608Z,16.13
2022-10-25T12:05:28.936Z,16.12
2022-10-25T12:08:03.424Z,16.10
2022-10-25T12:10:32.650Z,16.10
2022-10-25T12:13:02.209Z,16.11
2022-10-25T12:15:33.891Z,16.08
2022-10-25T12:18:00.302Z,16.05
2022-10-25T12:20:28.367Z,16.02
2022-10-25T12:22:56.691Z,16.02
2022-10-25T12:25:25.070Z,16.05
2022-10-25T12:27:56.824Z,16.08
2022-10-25T12:30:27.513Z,16.13
2022-10-25T12:32:55.981Z,16.19
2022-10-25T12:35:23.687Z,16.23
2022-10-25T12:37:55.068Z,16.28
2022-10-25T12:42:59.810Z,16.35
2022-10-25T12:45:37.461Z,16.38
2022-10-25T12:48:09.294Z,16.44
2022-10-25T12:50:51.002Z,16.50
2022-10-25T12:53:31.713Z,16.53
2022-10-25T12:56:01.432Z,16.51
2022-10-25T12:58:33.908Z,16.53
2022-10-25T13:01:07.491Z,16.50
2022-10-25T13:03:48.291Z,16.55
2022-10-25T13:06:35.426Z,16.60
2022-10-25T13:09:04.441Z,16.65
2022-10-25T13:11:35.230Z,16.70
2022-10-25T13:14:02.119Z,16.73
2022-10-25T13:16:31.046Z,16.79
2022-10-25T13:19:21.752Z,16.86
2022-10-25T13:22:06.957Z,16.91
2022-10-25T13:24:37.665Z,16.86
2022-10-25T13:27:12.742Z,16.78
2022-10-25T13:30:09.031Z,16.72
2022-10-25T13:32:37.443Z,16.69
2022-10-25T13:35:25.559Z,16.74
2022-10-25T13:37:52.976Z,16.73
2022-10-25T13:40:21.627Z,16.78
2022-10-25T13:42:49.506Z,16.80
2022-10-25T13:45:20.996Z,16.83
2022-10-25T13:47:49.982Z,16.85
2022-10-25T13:50:19.562Z,16.81
2022-10-25T13:52:52.881Z,16.73
2022-10-25T13:55:20.991Z,16.65
2022-10-25T13:57:49.260Z,16.54
2022-10-25T14:00:30.446Z,16.45
2022-10-25T14:03:05.574Z,16.41
2022-10-25T14:05:50.552Z,16.36
2022-10-25T14:08:20.995Z,16.35
2022-10-25T14:10:48.121Z,16.34
2022-10-25T14:13:17.684Z,16.33
2022-10-25T14:15:48.738Z,16.38
2022-10-25T14:18:18.306Z,16.43
2022-10-25T14:20:46.118Z,16.43
2022-10-25T14:23:14.656Z,16.47
2022-10-25T14:25:41.842Z,16.49
2022-10-25T14:28:12.963Z,16.49
2022-10-25T14:30:41.231Z,16.50
2022-10-25T14:33:21.226Z,16.44
2022-10-25T14:35:48.412Z,16.35
2022-10-25T14:38:15.644Z,16.32
2022-10-25T14:40:42.051Z,16.32
2022-10-25T14:43:13.152Z,16.37
2022-10-25T14:45:39.470Z,16.41
2022-10-25T14:48:08.398Z,16.48
2022-10-25T14:50:37.345Z,16.56
2022-10-25T14:53:03.760Z,16.62
2022-10-25T14:55:31.155Z,16.71
2022-10-25T14:57:58.755Z,16.72
2022-10-25T15:00:25.595Z,16.81
2022-10-25T15:02:54.054Z,16.89
2022-10-25T15:05:21.441Z,16.87
2022-10-25T15:07:53.238Z,16.77
2022-10-25T15:10:37.642Z,16.59
2022-10-25T15:13:04.736Z,16.41
2022-10-25T15:15:33.188Z,16.33
2022-10-25T15:17:59.603Z,16.30
2022-10-25T15:20:27.953Z,16.25
2022-10-25T15:23:03.075Z,16.12
2022-10-25T15:25:30.595Z,16.07
2022-10-25T15:28:08.559Z,16.07
2022-10-25T15:30:45.707Z,15.99
2022-10-25T15:33:13.513Z,15.93
2022-10-25T15:35:43.793Z,15.85
2022-10-25T15:38:10.655Z,15.76
2022-10-25T15:40:37.005Z,15.69
2022-10-25T15:43:03.266Z,15.64
2022-10-25T15:45:29.747Z,15.58
2022-10-25T15:47:58.164Z,15.55
2022-10-25T15:50:24.741Z,15.51
2022-10-25T15:52:51.118Z,15.50
2022-10-25T15:55:18.858Z,15.44
2022-10-25T15:57:45.159Z,15.37
2022-10-25T16:00:13.162Z,15.27
2022-10-25T16:02:39.472Z,15.20
2022-10-25T16:05:15.161Z,15.11
2022-10-25T16:07:41.457Z,15.04
2022-10-25T16:10:08.200Z,14.97
2022-10-25T16:12:34.503Z,14.86
2022-10-25T16:15:01.227Z,14.78
2022-10-25T16:17:27.573Z,14.71
2022-10-25T16:19:53.892Z,14.62
2022-10-25T16:22:21.585Z,14.53
2022-10-25T16:24:54.401Z,14.45
2022-10-25T16:27:21.149Z,14.36
2022-10-25T16:29:47.501Z,14.27
2022-10-25T16:32:14.197Z,14.18
2022-10-25T16:34:40.481Z,14.11
2022-10-25T16:37:09.272Z,14.06
2022-10-25T16:39:39.146Z,14.00
2022-10-25T16:42:25.749Z,13.93
2022-10-25T16:44:52.061Z,13.85
2022-10-25T16:47:18.376Z,13.78
2022-10-25T16:49:44.669Z,13.72
2022-10-25T16:52:10.983Z,13.67
2022-10-25T16:54:38.662Z,13.60
2022-10-25T16:57:04.957Z,13.53
2022-10-25T16:59:31.256Z,13.53
2022-10-25T17:01:57.878Z,13.47
2022-10-25T17:04:24.288Z,13.44
2022-10-25T17:06:50.584Z,13.39
2022-10-25T17:09:16.982Z,13.35
2022-10-25T17:11:44.686Z,13.27
2022-10-25T17:14:11.849Z,13.25
2022-10-25T17:16:38.975Z,13.27
2022-10-25T17:19:05.278Z,13.30
2022-10-25T17:21:31.644Z,13.31
2022-10-25T17:23:57.925Z,13.33
2022-10-25T17:26:24.276Z,13.34
2022-10-25T17:28:51.919Z,13.35
2022-10-25T17:31:18.247Z,13.32
2022-10-25T17:33:44.791Z,13.31
2022-10-25T17:36:12.028Z,13.29
2022-10-25T17:38:38.556Z,13.25
2022-10-25T17:41:05.093Z,13.23
2022-10-25T17:43:31.491Z,13.25
2022-10-25T17:46:02.054Z,13.22
2022-10-25T17:48:28.682Z,13.20
2022-10-25T17:50:59.778Z,13.18
2022-10-25T17:53:26.082Z,13.13
2022-10-25T17:55:52.356Z,13.11
2022-10-25T17:58:18.639Z,13.09
2022-10-25T18:00:44.946Z,13.05
2022-10-25T18:03:12.637Z,13.03
2022-10-25T18:05:39.408Z,13.01
2022-10-25T18:08:05.911Z,12.98
2022-10-25T18:10:32.649Z,12.97
2022-10-25T18:12:58.945Z,12.96
2022-10-25T18:15:25.229Z,12.94
2022-10-25T18:17:51.708Z,12.92
2022-10-25T18:20:19.422Z,12.90
2022-10-25T18:22:45.767Z,12.88
2022-10-25T18:25:12.141Z,12.85
2022-10-25T18:27:38.440Z,12.81
2022-10-25T18:30:05.169Z,12.78
2022-10-25T18:32:35.254Z,12.74
2022-10-25T18:35:02.762Z,12.74
2022-10-25T18:37:30.403Z,12.71
2022-10-25T18:39:56.723Z,12.70
2022-10-25T18:42:23.032Z,12.69
2022-10-25T18:44:49.325Z,12.66
2022-10-25T18:47:15.600Z,12.66
2022-10-25T18:49:41.905Z,12.65
2022-10-25T18:52:08.196Z,12.64
2022-10-25T18:54:35.824Z,12.60
2022-10-25T18:57:02.105Z,12.61
2022-10-25T18:59:28.399Z,12.60
2022-10-25T19:01:54.818Z,12.58
2022-10-25T19:04:21.210Z,12.58
2022-10-25T19:06:47.497Z,12.55
2022-10-25T19:09:13.826Z,12.54
2022-10-25T19:11:41.418Z,12.50
2022-10-25T19:14:07.703Z,12.48
2022-10-25T19:16:33.977Z,12.46
2022-10-25T19:19:01.481Z,12.45
2022-10-25T19:21:27.780Z,12.43
2022-10-25T19:23:54.076Z,12.42
2022-10-25T19:26:21.222Z,12.39
2022-10-25T19:28:54.567Z,12.38
2022-10-25T19:31:20.876Z,12.36
2022-10-25T19:33:47.374Z,12.34
2022-10-25T19:36:13.900Z,12.30
2022-10-25T19:38:40.205Z,12.26
2022-10-25T19:41:08.248Z,12.25
2022-10-25T19:43:34.861Z,12.24
2022-10-25T19:46:03.489Z,12.24
2022-10-25T19:48:30.470Z,12.24
2022-10-25T19:50:56.751Z,12.23
2022-10-25T19:53:23.153Z,12.22
2022-10-25T19:55:57.809Z,12.21
2022-10-25T19:58:24.107Z,12.19
2022-10-25T20:00:50.392Z,12.18
2022-10-25T20:03:17.988Z,12.16
2022-10-25T20:05:44.286Z,12.14
2022-10-25T20:08:10.553Z,12.08
2022-10-25T20:10:36.820Z,12.04
2022-10-25T20:13:04.774Z,12.02
2022-10-25T20:15:31.285Z,11.98
2022-10-25T20:17:57.869Z,11.98
2022-10-25T20:20:25.546Z,12.00
2022-10-25T20:22:51.821Z,11.99
2022-10-25T20:25:18.086Z,11.98
2022-10-25T20:27:44.426Z,11.94
2022-10-25T20:30:10.825Z,11.91
2022-10-25T20:32:37.251Z,11.84
2022-10-25T20:37:32.280Z,11.79
2022-10-25T20:39:58.587Z,11.76
2022-10-25T20:42:24.890Z,11.74
2022-10-25T20:44:51.286Z,11.69
2022-10-25T20:47:17.602Z,11.64
2022-10-25T20:49:43.883Z,11.62
2022-10-25T20:52:10.178Z,11.60
2022-10-25T20:54:37.805Z,11.60
2022-10-25T20:57:04.093Z,11.58
2022-10-25T20:59:30.385Z,11.55
2022-10-25T21:01:56.777Z,11.49
2022-10-25T21:04:36.045Z,11.52
2022-10-25T21:07:08.586Z,11.51
2022-10-25T21:09:34.882Z,11.51
2022-10-25T21:12:02.538Z,11.53
2022-10-25T21:14:28.882Z,11.51
2022-10-25T21:16:55.222Z,11.49
2022-10-25T21:19:21.497Z,11.53
2022-10-25T21:21:47.821Z,11.52
2022-10-25T21:24:14.218Z,11.53
2022-10-25T21:26:40.508Z,11.49
2022-10-25T21:29:08.155Z,11.51
2022-10-25T21:31:34.432Z,11.46
2022-10-25T21:34:00.809Z,11.44
2022-10-25T21:36:27.114Z,11.43
2022-10-25T21:38:53.422Z,11.42
2022-10-25T21:41:20.886Z,11.35
2022-10-25T21:43:48.140Z,11.35
2022-10-25T21:46:16.468Z,11.33
2022-10-25T21:48:43.049Z,11.34
2022-10-25T21:51:09.416Z,11.33
2022-10-25T21:53:35.806Z,11.31
2022-10-25T21:56:03.191Z,11.31
2022-10-25T21:58:29.465Z,11.31
2022-10-25T22:00:55.755Z,11.33
2022-10-25T22:03:25.588Z,11.29
2022-10-25T22:05:53.917Z,11.30
2022-10-25T22:08:20.192Z,11.29
2022-10-25T22:10:53.812Z,11.30
2022-10-25T22:13:20.150Z,11.33
2022-10-25T22:15:54.087Z,11.34
2022-10-25T22:18:20.391Z,11.35
2022-10-25T22:20:53.314Z,11.35
2022-10-25T22:23:19.580Z,11.37
2022-10-25T22:25:45.895Z,11.38
2022-10-25T22:28:12.218Z,11.38
2022-10-25T22:30:38.471Z,11.37
2022-10-25T22:33:04.745Z,11.39
2022-10-25T22:35:31.665Z,11.40
2022-10-25T22:37:59.283Z,11.39
2022-10-25T22:40:25.577Z,11.37
2022-10-25T22:42:51.857Z,11.39
2022-10-25T22:45:18.123Z,11.40
2022-10-25T22:47:44.405Z,11.39
2022-10-25T22:50:11.047Z,11.41
2022-10-25T22:52:37.362Z,11.38
2022-10-25T22:55:05.461Z,11.36
2022-10-25T22:57:31.765Z,11.31
2022-10-25T22:59:58.059Z,11.30
2022-10-25T23:02:24.336Z,11.29
2022-10-25T23:04:50.631Z,11.28
2022-10-25T23:07:16.911Z,11.27
2022-10-25T23:09:43.202Z,11.30
2022-10-25T23:12:10.820Z,11.31
2022-10-25T23:14:37.101Z,11.30
2022-10-25T23:17:03.389Z,11.30
2022-10-25T23:19:29.675Z,11.28
2022-10-25T23:21:55.954Z,11.26
2022-10-25T23:24:22.239Z,11.28
2022-10-25T23:26:48.532Z,11.30
2022-10-25T23:29:16.188Z,11.30
2022-10-25T23:31:42.520Z,11.26
2022-10-25T23:34:09.398Z,11.26
2022-10-25T23:36:35.692Z,11.26
2022-10-25T23:39:01.953Z,11.28
2022-10-25T23:41:28.235Z,11.28
2022-10-25T23:43:54.527Z,11.32
2022-10-25T23:46:22.195Z,11.30
2022-10-25T23:48:48.479Z,11.31
2022-10-25T23:51:15.737Z,11.34
2022-10-25T23:53:42.304Z,11.35
2022-10-25T23:56:09.869Z,11.34
2022-10-25T23:58:36.178Z,11.33
